sensor_id;sensor_type;location;lat;lon;timestamp;temperature;humidity
41533;DHT22;27262;-35.248;149.138;2023-04-24T00:01:55;19.90;71.50
41533;DHT22;27262;-35.248;149.138;2023-04-24T00:04:27;19.90;71.50
41533;DHT22;27262;-35.248;149.138;2023-04-24T00:06:57;20.00;71.70
41533;DHT22;27262;-35.248;149.138;2023-04-24T00:09:29;20.00;71.70
41533;DHT22;27262;-35.248;149.138;2023-04-24T00:11:59;20.00;71.70
41533;DHT22;27262;-35.248;149.138;2023-04-24T00:14:35;20.00;71.50
41533;DHT22;27262;-35.248;149.138;2023-04-24T00:17:05;20.10;71.70
41533;DHT22;27262;-35.248;149.138;2023-04-24T00:19:36;20.10;71.70
41533;DHT22;27262;-35.248;149.138;2023-04-24T00:22:08;20.10;71.50
41533;DHT22;27262;-35.248;149.138;2023-04-24T00:24:38;20.20;71.40
41533;DHT22;27262;-35.248;149.138;2023-04-24T00:27:08;20.20;71.20
41533;DHT22;27262;-35.248;149.138;2023-04-24T00:29:39;20.20;71.10
41533;DHT22;27262;-35.248;149.138;2023-04-24T00:32:10;20.20;71.00
41533;DHT22;27262;-35.248;149.138;2023-04-24T00:34:41;20.20;70.90
41533;DHT22;27262;-35.248;149.138;2023-04-24T00:37:11;20.30;70.80
41533;DHT22;27262;-35.248;149.138;2023-04-24T00:39:41;20.30;70.80
41533;DHT22;27262;-35.248;149.138;2023-04-24T00:42:12;20.30;70.80
41533;DHT22;27262;-35.248;149.138;2023-04-24T00:44:43;20.30;70.70
41533;DHT22;27262;-35.248;149.138;2023-04-24T00:47:13;20.30;70.80
41533;DHT22;27262;-35.248;149.138;2023-04-24T00:49:44;20.40;70.80
41533;DHT22;27262;-35.248;149.138;2023-04-24T00:52:15;20.40;71.00
41533;DHT22;27262;-35.248;149.138;2023-04-24T00:54:47;20.50;70.90
41533;DHT22;27262;-35.248;149.138;2023-04-24T00:57:17;20.50;70.90
41533;DHT22;27262;-35.248;149.138;2023-04-24T00:59:48;20.50;70.70
41533;DHT22;27262;-35.248;149.138;2023-04-24T01:02:19;20.60;70.70
41533;DHT22;27262;-35.248;149.138;2023-04-24T01:04:51;20.60;70.70
41533;DHT22;27262;-35.248;149.138;2023-04-24T01:07:21;20.60;70.50
41533;DHT22;27262;-35.248;149.138;2023-04-24T01:09:52;20.70;70.30
41533;DHT22;27262;-35.248;149.138;2023-04-24T01:12:22;20.70;70.20
41533;DHT22;27262;-35.248;149.138;2023-04-24T01:14:53;20.70;70.00
41533;DHT22;27262;-35.248;149.138;2023-04-24T01:17:24;20.70;69.40
41533;DHT22;27262;-35.248;149.138;2023-04-24T01:19:55;20.70;68.60
41533;DHT22;27262;-35.248;149.138;2023-04-24T01:22:29;20.70;68.30
41533;DHT22;27262;-35.248;149.138;2023-04-24T01:24:59;20.70;68.00
41533;DHT22;27262;-35.248;149.138;2023-04-24T01:27:30;20.70;67.50
41533;DHT22;27262;-35.248;149.138;2023-04-24T01:30:00;20.70;65.80
41533;DHT22;27262;-35.248;149.138;2023-04-24T01:32:31;20.70;65.70
41533;DHT22;27262;-35.248;149.138;2023-04-24T01:35:02;20.70;63.80
41533;DHT22;27262;-35.248;149.138;2023-04-24T01:37:33;20.70;63.10
41533;DHT22;27262;-35.248;149.138;2023-04-24T01:40:07;20.70;62.50
41533;DHT22;27262;-35.248;149.138;2023-04-24T01:42:38;20.70;62.60
41533;DHT22;27262;-35.248;149.138;2023-04-24T01:45:11;20.70;61.30
41533;DHT22;27262;-35.248;149.138;2023-04-24T01:47:45;20.70;61.80
41533;DHT22;27262;-35.248;149.138;2023-04-24T01:50:17;20.70;61.70
41533;DHT22;27262;-35.248;149.138;2023-04-24T01:52:48;20.70;61.80
41533;DHT22;27262;-35.248;149.138;2023-04-24T01:55:18;20.70;62.40
41533;DHT22;27262;-35.248;149.138;2023-04-24T01:57:50;20.70;63.10
41533;DHT22;27262;-35.248;149.138;2023-04-24T02:00:22;20.70;61.30
41533;DHT22;27262;-35.248;149.138;2023-04-24T02:02:54;20.70;61.50
41533;DHT22;27262;-35.248;149.138;2023-04-24T02:05:25;20.60;59.40
41533;DHT22;27262;-35.248;149.138;2023-04-24T02:07:55;20.60;60.40
41533;DHT22;27262;-35.248;149.138;2023-04-24T02:10:26;20.60;61.10
41533;DHT22;27262;-35.248;149.138;2023-04-24T02:12:56;20.70;61.70
41533;DHT22;27262;-35.248;149.138;2023-04-24T02:15:26;20.60;61.10
41533;DHT22;27262;-35.248;149.138;2023-04-24T02:17:56;20.70;60.80
41533;DHT22;27262;-35.248;149.138;2023-04-24T02:20:27;20.60;61.20
41533;DHT22;27262;-35.248;149.138;2023-04-24T02:22:57;20.60;61.70
41533;DHT22;27262;-35.248;149.138;2023-04-24T02:25:27;20.60;60.80
41533;DHT22;27262;-35.248;149.138;2023-04-24T02:27:58;20.60;58.90
41533;DHT22;27262;-35.248;149.138;2023-04-24T02:30:28;20.60;58.90
41533;DHT22;27262;-35.248;149.138;2023-04-24T02:32:58;20.60;59.80
41533;DHT22;27262;-35.248;149.138;2023-04-24T02:35:29;20.60;59.90
41533;DHT22;27262;-35.248;149.138;2023-04-24T02:37:59;20.60;59.90
41533;DHT22;27262;-35.248;149.138;2023-04-24T02:40:30;20.60;59.30
41533;DHT22;27262;-35.248;149.138;2023-04-24T02:43:00;20.60;58.60
41533;DHT22;27262;-35.248;149.138;2023-04-24T02:45:31;20.60;56.90
41533;DHT22;27262;-35.248;149.138;2023-04-24T02:48:03;20.60;57.90
41533;DHT22;27262;-35.248;149.138;2023-04-24T02:50:34;20.60;58.40
41533;DHT22;27262;-35.248;149.138;2023-04-24T02:53:04;20.60;59.10
41533;DHT22;27262;-35.248;149.138;2023-04-24T02:55:34;20.60;59.00
41533;DHT22;27262;-35.248;149.138;2023-04-24T02:58:05;20.60;59.30
41533;DHT22;27262;-35.248;149.138;2023-04-24T03:00:35;20.60;58.50
41533;DHT22;27262;-35.248;149.138;2023-04-24T03:03:06;20.60;55.90
41533;DHT22;27262;-35.248;149.138;2023-04-24T03:05:36;20.60;56.90
41533;DHT22;27262;-35.248;149.138;2023-04-24T03:08:07;20.60;57.40
41533;DHT22;27262;-35.248;149.138;2023-04-24T03:10:37;20.60;57.70
41533;DHT22;27262;-35.248;149.138;2023-04-24T03:13:07;20.60;57.50
41533;DHT22;27262;-35.248;149.138;2023-04-24T03:15:37;20.60;58.40
41533;DHT22;27262;-35.248;149.138;2023-04-24T03:18:08;20.60;58.60
41533;DHT22;27262;-35.248;149.138;2023-04-24T03:20:38;20.60;58.50
41533;DHT22;27262;-35.248;149.138;2023-04-24T03:23:09;20.60;58.40
41533;DHT22;27262;-35.248;149.138;2023-04-24T03:25:39;20.60;56.90
41533;DHT22;27262;-35.248;149.138;2023-04-24T03:28:12;20.70;57.00
41533;DHT22;27262;-35.248;149.138;2023-04-24T03:30:42;20.70;56.70
41533;DHT22;27262;-35.248;149.138;2023-04-24T03:33:13;20.70;57.80
41533;DHT22;27262;-35.248;149.138;2023-04-24T03:35:43;20.70;58.40
41533;DHT22;27262;-35.248;149.138;2023-04-24T03:38:14;20.70;58.20
41533;DHT22;27262;-35.248;149.138;2023-04-24T03:40:44;20.70;57.30
41533;DHT22;27262;-35.248;149.138;2023-04-24T03:43:15;20.70;56.00
41533;DHT22;27262;-35.248;149.138;2023-04-24T03:45:45;20.80;56.90
41533;DHT22;27262;-35.248;149.138;2023-04-24T03:48:15;20.70;56.60
41533;DHT22;27262;-35.248;149.138;2023-04-24T03:50:46;20.80;57.20
41533;DHT22;27262;-35.248;149.138;2023-04-24T03:53:16;20.80;57.40
41533;DHT22;27262;-35.248;149.138;2023-04-24T03:55:47;20.80;57.30
41533;DHT22;27262;-35.248;149.138;2023-04-24T03:58:17;20.80;56.80
41533;DHT22;27262;-35.248;149.138;2023-04-24T04:00:47;20.80;55.40
41533;DHT22;27262;-35.248;149.138;2023-04-24T04:03:18;20.80;56.60
41533;DHT22;27262;-35.248;149.138;2023-04-24T04:05:49;20.80;56.60
41533;DHT22;27262;-35.248;149.138;2023-04-24T04:08:19;20.80;56.80
41533;DHT22;27262;-35.248;149.138;2023-04-24T04:10:50;20.80;56.80
41533;DHT22;27262;-35.248;149.138;2023-04-24T04:13:21;20.80;56.80
41533;DHT22;27262;-35.248;149.138;2023-04-24T04:15:51;20.80;56.90
41533;DHT22;27262;-35.248;149.138;2023-04-24T04:18:21;20.80;57.10
41533;DHT22;27262;-35.248;149.138;2023-04-24T04:20:51;20.80;57.10
41533;DHT22;27262;-35.248;149.138;2023-04-24T04:23:22;20.80;57.10
41533;DHT22;27262;-35.248;149.138;2023-04-24T04:25:52;20.80;56.40
41533;DHT22;27262;-35.248;149.138;2023-04-24T04:28:22;20.80;56.80
41533;DHT22;27262;-35.248;149.138;2023-04-24T04:30:54;20.80;56.70
41533;DHT22;27262;-35.248;149.138;2023-04-24T04:33:25;20.90;57.10
41533;DHT22;27262;-35.248;149.138;2023-04-24T04:35:55;20.90;55.90
41533;DHT22;27262;-35.248;149.138;2023-04-24T04:38:30;20.90;55.60
41533;DHT22;27262;-35.248;149.138;2023-04-24T04:41:00;21.00;55.30
41533;DHT22;27262;-35.248;149.138;2023-04-24T04:43:31;21.00;55.20
41533;DHT22;27262;-35.248;149.138;2023-04-24T04:46:02;21.00;55.80
41533;DHT22;27262;-35.248;149.138;2023-04-24T04:48:32;21.00;56.20
41533;DHT22;27262;-35.248;149.138;2023-04-24T04:51:03;21.00;57.00
41533;DHT22;27262;-35.248;149.138;2023-04-24T04:53:33;21.00;57.10
41533;DHT22;27262;-35.248;149.138;2023-04-24T04:56:04;21.00;57.40
41533;DHT22;27262;-35.248;149.138;2023-04-24T04:58:34;21.00;57.90
41533;DHT22;27262;-35.248;149.138;2023-04-24T05:01:05;21.00;58.10
41533;DHT22;27262;-35.248;149.138;2023-04-24T05:03:36;21.00;58.10
41533;DHT22;27262;-35.248;149.138;2023-04-24T05:06:07;21.00;57.90
41533;DHT22;27262;-35.248;149.138;2023-04-24T05:08:37;21.00;57.80
41533;DHT22;27262;-35.248;149.138;2023-04-24T05:11:07;20.90;57.60
41533;DHT22;27262;-35.248;149.138;2023-04-24T05:13:38;21.00;58.20
41533;DHT22;27262;-35.248;149.138;2023-04-24T05:16:08;20.90;57.40
41533;DHT22;27262;-35.248;149.138;2023-04-24T05:18:39;21.00;57.50
41533;DHT22;27262;-35.248;149.138;2023-04-24T05:21:09;21.00;57.50
41533;DHT22;27262;-35.248;149.138;2023-04-24T05:23:40;21.00;57.60
41533;DHT22;27262;-35.248;149.138;2023-04-24T05:26:10;21.00;57.50
41533;DHT22;27262;-35.248;149.138;2023-04-24T05:28:40;21.00;57.60
41533;DHT22;27262;-35.248;149.138;2023-04-24T05:31:10;21.00;57.50
41533;DHT22;27262;-35.248;149.138;2023-04-24T05:33:41;21.00;57.80
41533;DHT22;27262;-35.248;149.138;2023-04-24T05:36:12;21.00;57.90
41533;DHT22;27262;-35.248;149.138;2023-04-24T05:38:42;21.00;58.10
41533;DHT22;27262;-35.248;149.138;2023-04-24T05:41:12;21.00;58.40
41533;DHT22;27262;-35.248;149.138;2023-04-24T05:43:43;21.00;58.70
41533;DHT22;27262;-35.248;149.138;2023-04-24T05:46:13;21.00;58.70
41533;DHT22;27262;-35.248;149.138;2023-04-24T05:48:43;21.10;58.90
41533;DHT22;27262;-35.248;149.138;2023-04-24T05:51:13;21.00;59.10
41533;DHT22;27262;-35.248;149.138;2023-04-24T05:53:44;21.00;59.20
41533;DHT22;27262;-35.248;149.138;2023-04-24T05:56:14;21.00;59.30
41533;DHT22;27262;-35.248;149.138;2023-04-24T05:58:46;21.10;59.50
41533;DHT22;27262;-35.248;149.138;2023-04-24T06:01:16;21.10;59.50
41533;DHT22;27262;-35.248;149.138;2023-04-24T06:03:48;21.10;59.70
41533;DHT22;27262;-35.248;149.138;2023-04-24T06:06:18;21.10;59.80
41533;DHT22;27262;-35.248;149.138;2023-04-24T06:08:48;21.00;59.80
41533;DHT22;27262;-35.248;149.138;2023-04-24T06:11:19;21.10;59.90
41533;DHT22;27262;-35.248;149.138;2023-04-24T06:13:49;21.10;60.00
41533;DHT22;27262;-35.248;149.138;2023-04-24T06:16:19;21.10;60.20
41533;DHT22;27262;-35.248;149.138;2023-04-24T06:18:50;21.10;60.20
41533;DHT22;27262;-35.248;149.138;2023-04-24T06:21:20;21.00;60.20
41533;DHT22;27262;-35.248;149.138;2023-04-24T06:23:50;21.10;60.40
41533;DHT22;27262;-35.248;149.138;2023-04-24T06:26:20;21.10;60.50
41533;DHT22;27262;-35.248;149.138;2023-04-24T06:28:52;21.10;60.70
41533;DHT22;27262;-35.248;149.138;2023-04-24T06:31:25;21.10;60.80
41533;DHT22;27262;-35.248;149.138;2023-04-24T06:33:55;21.10;60.80
41533;DHT22;27262;-35.248;149.138;2023-04-24T06:36:26;21.10;61.00
41533;DHT22;27262;-35.248;149.138;2023-04-24T06:38:57;21.10;61.10
41533;DHT22;27262;-35.248;149.138;2023-04-24T06:41:28;21.10;61.20
41533;DHT22;27262;-35.248;149.138;2023-04-24T06:43:59;21.10;61.30
41533;DHT22;27262;-35.248;149.138;2023-04-24T06:46:32;21.10;61.50
41533;DHT22;27262;-35.248;149.138;2023-04-24T06:49:03;21.10;61.70
41533;DHT22;27262;-35.248;149.138;2023-04-24T06:51:33;21.20;62.80
41533;DHT22;27262;-35.248;149.138;2023-04-24T06:54:03;21.20;62.00
41533;DHT22;27262;-35.248;149.138;2023-04-24T06:56:34;21.20;62.10
41533;DHT22;27262;-35.248;149.138;2023-04-24T06:59:04;21.20;62.10
41533;DHT22;27262;-35.248;149.138;2023-04-24T07:01:34;21.30;62.10
41533;DHT22;27262;-35.248;149.138;2023-04-24T07:04:05;21.20;62.10
41533;DHT22;27262;-35.248;149.138;2023-04-24T07:06:35;21.20;62.20
41533;DHT22;27262;-35.248;149.138;2023-04-24T07:09:06;21.20;63.00
41533;DHT22;27262;-35.248;149.138;2023-04-24T07:11:38;21.20;62.30
41533;DHT22;27262;-35.248;149.138;2023-04-24T07:14:10;21.20;62.30
41533;DHT22;27262;-35.248;149.138;2023-04-24T07:16:40;21.20;62.30
41533;DHT22;27262;-35.248;149.138;2023-04-24T07:19:10;21.20;62.40
41533;DHT22;27262;-35.248;149.138;2023-04-24T07:21:41;21.10;62.40
41533;DHT22;27262;-35.248;149.138;2023-04-24T07:24:12;21.10;62.40
41533;DHT22;27262;-35.248;149.138;2023-04-24T07:26:42;21.20;62.50
41533;DHT22;27262;-35.248;149.138;2023-04-24T07:29:13;21.10;62.40
41533;DHT22;27262;-35.248;149.138;2023-04-24T07:31:44;21.10;62.50
41533;DHT22;27262;-35.248;149.138;2023-04-24T07:34:15;21.10;62.60
41533;DHT22;27262;-35.248;149.138;2023-04-24T07:36:46;21.10;62.60
41533;DHT22;27262;-35.248;149.138;2023-04-24T07:39:17;21.10;62.70
41533;DHT22;27262;-35.248;149.138;2023-04-24T07:41:47;21.10;62.60
41533;DHT22;27262;-35.248;149.138;2023-04-24T07:44:17;21.10;62.70
41533;DHT22;27262;-35.248;149.138;2023-04-24T07:46:48;21.10;62.70
41533;DHT22;27262;-35.248;149.138;2023-04-24T07:49:18;21.10;62.80
41533;DHT22;27262;-35.248;149.138;2023-04-24T07:51:50;21.10;62.80
41533;DHT22;27262;-35.248;149.138;2023-04-24T07:54:21;21.10;62.80
41533;DHT22;27262;-35.248;149.138;2023-04-24T07:56:52;21.10;62.80
41533;DHT22;27262;-35.248;149.138;2023-04-24T07:59:22;21.10;63.00
41533;DHT22;27262;-35.248;149.138;2023-04-24T08:01:52;21.00;63.00
41533;DHT22;27262;-35.248;149.138;2023-04-24T08:04:23;21.10;63.10
41533;DHT22;27262;-35.248;149.138;2023-04-24T08:06:54;21.00;63.00
41533;DHT22;27262;-35.248;149.138;2023-04-24T08:09:25;21.10;63.20
41533;DHT22;27262;-35.248;149.138;2023-04-24T08:11:55;21.10;63.10
41533;DHT22;27262;-35.248;149.138;2023-04-24T08:14:27;21.00;63.10
41533;DHT22;27262;-35.248;149.138;2023-04-24T08:16:57;21.00;63.20
41533;DHT22;27262;-35.248;149.138;2023-04-24T08:19:29;21.00;63.20
41533;DHT22;27262;-35.248;149.138;2023-04-24T08:21:59;21.00;63.30
41533;DHT22;27262;-35.248;149.138;2023-04-24T08:24:30;21.00;63.30
41533;DHT22;27262;-35.248;149.138;2023-04-24T08:27:01;21.00;63.30
41533;DHT22;27262;-35.248;149.138;2023-04-24T08:29:31;21.00;63.30
41533;DHT22;27262;-35.248;149.138;2023-04-24T08:32:02;21.00;63.40
41533;DHT22;27262;-35.248;149.138;2023-04-24T08:34:32;21.00;63.40
41533;DHT22;27262;-35.248;149.138;2023-04-24T08:37:03;21.00;63.40
41533;DHT22;27262;-35.248;149.138;2023-04-24T08:39:34;21.00;63.50
41533;DHT22;27262;-35.248;149.138;2023-04-24T08:42:05;21.00;63.50
41533;DHT22;27262;-35.248;149.138;2023-04-24T08:44:37;21.00;63.50
41533;DHT22;27262;-35.248;149.138;2023-04-24T08:47:08;21.00;63.60
41533;DHT22;27262;-35.248;149.138;2023-04-24T08:49:40;21.00;63.60
41533;DHT22;27262;-35.248;149.138;2023-04-24T08:52:13;21.00;63.60
41533;DHT22;27262;-35.248;149.138;2023-04-24T08:54:43;21.00;63.70
41533;DHT22;27262;-35.248;149.138;2023-04-24T08:57:15;20.90;63.60
41533;DHT22;27262;-35.248;149.138;2023-04-24T08:59:47;20.90;63.70
41533;DHT22;27262;-35.248;149.138;2023-04-24T09:02:17;20.90;63.70
41533;DHT22;27262;-35.248;149.138;2023-04-24T09:04:49;20.90;64.50
41533;DHT22;27262;-35.248;149.138;2023-04-24T09:07:20;20.90;63.80
41533;DHT22;27262;-35.248;149.138;2023-04-24T09:09:52;20.90;63.80
41533;DHT22;27262;-35.248;149.138;2023-04-24T09:12:22;20.90;63.80
41533;DHT22;27262;-35.248;149.138;2023-04-24T09:14:54;20.90;63.80
41533;DHT22;27262;-35.248;149.138;2023-04-24T09:17:25;20.90;63.90
41533;DHT22;27262;-35.248;149.138;2023-04-24T09:19:56;20.90;63.90
41533;DHT22;27262;-35.248;149.138;2023-04-24T09:22:32;20.90;63.90
41533;DHT22;27262;-35.248;149.138;2023-04-24T09:25:04;20.90;63.90
41533;DHT22;27262;-35.248;149.138;2023-04-24T09:27:36;20.80;63.90
41533;DHT22;27262;-35.248;149.138;2023-04-24T09:30:07;20.80;64.00
41533;DHT22;27262;-35.248;149.138;2023-04-24T09:32:37;20.80;64.00
41533;DHT22;27262;-35.248;149.138;2023-04-24T09:35:13;20.80;64.00
41533;DHT22;27262;-35.248;149.138;2023-04-24T09:37:47;20.80;64.00
41533;DHT22;27262;-35.248;149.138;2023-04-24T09:40:19;20.80;64.00
41533;DHT22;27262;-35.248;149.138;2023-04-24T09:42:57;20.80;64.10
41533;DHT22;27262;-35.248;149.138;2023-04-24T09:45:37;20.80;64.00
41533;DHT22;27262;-35.248;149.138;2023-04-24T09:48:11;20.80;64.10
41533;DHT22;27262;-35.248;149.138;2023-04-24T09:50:46;20.80;64.20
41533;DHT22;27262;-35.248;149.138;2023-04-24T09:53:17;20.80;64.20
41533;DHT22;27262;-35.248;149.138;2023-04-24T09:55:53;20.70;64.20
41533;DHT22;27262;-35.248;149.138;2023-04-24T09:58:28;20.70;64.20
41533;DHT22;27262;-35.248;149.138;2023-04-24T10:00:58;20.80;64.30
41533;DHT22;27262;-35.248;149.138;2023-04-24T10:03:33;20.70;64.20
41533;DHT22;27262;-35.248;149.138;2023-04-24T10:06:04;20.70;64.20
41533;DHT22;27262;-35.248;149.138;2023-04-24T10:08:38;20.70;64.30
41533;DHT22;27262;-35.248;149.138;2023-04-24T10:11:08;20.70;64.30
41533;DHT22;27262;-35.248;149.138;2023-04-24T10:13:41;20.70;64.30
41533;DHT22;27262;-35.248;149.138;2023-04-24T10:16:12;20.70;64.40
41533;DHT22;27262;-35.248;149.138;2023-04-24T10:18:43;20.70;64.30
41533;DHT22;27262;-35.248;149.138;2023-04-24T10:21:16;20.70;64.40
41533;DHT22;27262;-35.248;149.138;2023-04-24T10:23:47;20.70;64.40
41533;DHT22;27262;-35.248;149.138;2023-04-24T10:26:18;20.70;64.40
41533;DHT22;27262;-35.248;149.138;2023-04-24T10:28:49;20.60;64.30
41533;DHT22;27262;-35.248;149.138;2023-04-24T10:31:21;20.60;64.40
41533;DHT22;27262;-35.248;149.138;2023-04-24T10:33:52;20.60;64.40
41533;DHT22;27262;-35.248;149.138;2023-04-24T10:36:24;20.60;64.40
41533;DHT22;27262;-35.248;149.138;2023-04-24T10:38:56;20.60;64.40
41533;DHT22;27262;-35.248;149.138;2023-04-24T10:41:30;20.60;64.40
41533;DHT22;27262;-35.248;149.138;2023-04-24T10:44:13;20.60;64.50
41533;DHT22;27262;-35.248;149.138;2023-04-24T10:46:46;20.60;64.40
41533;DHT22;27262;-35.248;149.138;2023-04-24T10:49:28;20.60;64.50
41533;DHT22;27262;-35.248;149.138;2023-04-24T10:52:03;20.60;64.50
41533;DHT22;27262;-35.248;149.138;2023-04-24T10:54:42;20.60;64.60
41533;DHT22;27262;-35.248;149.138;2023-04-24T11:00:09;20.50;64.50
41533;DHT22;27262;-35.248;149.138;2023-04-24T11:02:42;20.50;64.60
41533;DHT22;27262;-35.248;149.138;2023-04-24T11:05:20;20.50;64.60
41533;DHT22;27262;-35.248;149.138;2023-04-24T11:08:16;20.50;64.60
41533;DHT22;27262;-35.248;149.138;2023-04-24T11:27:22;20.40;64.70
41533;DHT22;27262;-35.248;149.138;2023-04-24T11:32:41;20.40;64.80
41533;DHT22;27262;-35.248;149.138;2023-04-24T11:37:52;20.40;64.80
41533;DHT22;27262;-35.248;149.138;2023-04-24T11:40:25;20.40;64.80
41533;DHT22;27262;-35.248;149.138;2023-04-24T11:42:55;20.40;64.80
41533;DHT22;27262;-35.248;149.138;2023-04-24T11:45:28;20.40;64.80
41533;DHT22;27262;-35.248;149.138;2023-04-24T11:47:59;20.40;64.90
41533;DHT22;27262;-35.248;149.138;2023-04-24T11:50:29;20.40;64.90
41533;DHT22;27262;-35.248;149.138;2023-04-24T11:52:59;20.40;64.90
41533;DHT22;27262;-35.248;149.138;2023-04-24T11:55:31;20.40;64.90
41533;DHT22;27262;-35.248;149.138;2023-04-24T11:58:01;20.30;64.90
41533;DHT22;27262;-35.248;149.138;2023-04-24T12:00:32;20.40;64.90
41533;DHT22;27262;-35.248;149.138;2023-04-24T12:03:08;20.30;64.80
41533;DHT22;27262;-35.248;149.138;2023-04-24T12:05:39;20.30;65.60
41533;DHT22;27262;-35.248;149.138;2023-04-24T12:08:10;20.30;64.90
41533;DHT22;27262;-35.248;149.138;2023-04-24T12:10:40;20.30;64.90
41533;DHT22;27262;-35.248;149.138;2023-04-24T12:13:11;20.30;64.90
41533;DHT22;27262;-35.248;149.138;2023-04-24T12:15:41;20.30;64.90
41533;DHT22;27262;-35.248;149.138;2023-04-24T12:18:15;20.30;65.00
41533;DHT22;27262;-35.248;149.138;2023-04-24T12:20:46;20.30;65.00
41533;DHT22;27262;-35.248;149.138;2023-04-24T12:23:32;20.30;65.00
41533;DHT22;27262;-35.248;149.138;2023-04-24T12:26:05;20.30;65.10
41533;DHT22;27262;-35.248;149.138;2023-04-24T12:28:37;20.20;65.10
41533;DHT22;27262;-35.248;149.138;2023-04-24T12:31:08;20.30;65.20
41533;DHT22;27262;-35.248;149.138;2023-04-24T12:33:38;20.20;65.10
41533;DHT22;27262;-35.248;149.138;2023-04-24T12:36:10;20.30;65.20
41533;DHT22;27262;-35.248;149.138;2023-04-24T12:38:44;20.20;65.20
41533;DHT22;27262;-35.248;149.138;2023-04-24T12:41:16;20.20;65.20
41533;DHT22;27262;-35.248;149.138;2023-04-24T12:43:55;20.20;65.20
41533;DHT22;27262;-35.248;149.138;2023-04-24T12:46:25;20.20;65.20
41533;DHT22;27262;-35.248;149.138;2023-04-24T12:48:55;20.20;65.20
41533;DHT22;27262;-35.248;149.138;2023-04-24T12:51:27;20.20;65.30
41533;DHT22;27262;-35.248;149.138;2023-04-24T12:53:58;20.20;65.30
41533;DHT22;27262;-35.248;149.138;2023-04-24T12:56:28;20.20;65.30
41533;DHT22;27262;-35.248;149.138;2023-04-24T12:58:59;20.20;65.40
41533;DHT22;27262;-35.248;149.138;2023-04-24T13:01:29;20.20;65.50
41533;DHT22;27262;-35.248;149.138;2023-04-24T13:03:59;20.20;65.60
41533;DHT22;27262;-35.248;149.138;2023-04-24T13:06:30;20.20;65.60
41533;DHT22;27262;-35.248;149.138;2023-04-24T13:09:01;20.20;65.60
41533;DHT22;27262;-35.248;149.138;2023-04-24T13:11:31;20.20;65.60
41533;DHT22;27262;-35.248;149.138;2023-04-24T13:14:02;20.10;65.70
41533;DHT22;27262;-35.248;149.138;2023-04-24T13:16:32;20.20;65.70
41533;DHT22;27262;-35.248;149.138;2023-04-24T13:19:03;20.20;65.80
41533;DHT22;27262;-35.248;149.138;2023-04-24T13:21:33;20.20;65.90
41533;DHT22;27262;-35.248;149.138;2023-04-24T13:24:03;20.10;65.70
41533;DHT22;27262;-35.248;149.138;2023-04-24T13:26:35;20.10;65.80
41533;DHT22;27262;-35.248;149.138;2023-04-24T13:29:05;20.10;65.80
41533;DHT22;27262;-35.248;149.138;2023-04-24T13:31:35;20.10;65.90
41533;DHT22;27262;-35.248;149.138;2023-04-24T13:34:06;20.10;65.90
41533;DHT22;27262;-35.248;149.138;2023-04-24T13:36:36;20.10;66.00
41533;DHT22;27262;-35.248;149.138;2023-04-24T13:39:07;20.10;66.00
41533;DHT22;27262;-35.248;149.138;2023-04-24T13:41:37;20.10;66.10
41533;DHT22;27262;-35.248;149.138;2023-04-24T13:44:07;20.10;66.10
41533;DHT22;27262;-35.248;149.138;2023-04-24T13:46:38;20.00;66.00
41533;DHT22;27262;-35.248;149.138;2023-04-24T13:49:08;20.00;66.10
41533;DHT22;27262;-35.248;149.138;2023-04-24T13:51:39;20.00;66.20
41533;DHT22;27262;-35.248;149.138;2023-04-24T13:54:10;20.00;66.10
41533;DHT22;27262;-35.248;149.138;2023-04-24T13:56:41;20.00;66.20
41533;DHT22;27262;-35.248;149.138;2023-04-24T13:59:13;20.00;66.20
41533;DHT22;27262;-35.248;149.138;2023-04-24T14:01:43;20.00;66.20
41533;DHT22;27262;-35.248;149.138;2023-04-24T14:04:14;20.00;66.20
41533;DHT22;27262;-35.248;149.138;2023-04-24T14:06:45;20.00;66.20
41533;DHT22;27262;-35.248;149.138;2023-04-24T14:09:15;20.00;66.20
41533;DHT22;27262;-35.248;149.138;2023-04-24T14:11:45;20.00;66.30
41533;DHT22;27262;-35.248;149.138;2023-04-24T14:14:16;20.00;66.30
41533;DHT22;27262;-35.248;149.138;2023-04-24T14:16:46;20.00;66.30
41533;DHT22;27262;-35.248;149.138;2023-04-24T14:19:16;19.90;66.20
41533;DHT22;27262;-35.248;149.138;2023-04-24T14:21:46;20.00;66.30
41533;DHT22;27262;-35.248;149.138;2023-04-24T14:24:17;19.90;66.20
41533;DHT22;27262;-35.248;149.138;2023-04-24T14:26:47;19.90;66.20
41533;DHT22;27262;-35.248;149.138;2023-04-24T14:29:17;19.90;66.20
41533;DHT22;27262;-35.248;149.138;2023-04-24T14:31:48;19.90;66.20
41533;DHT22;27262;-35.248;149.138;2023-04-24T14:34:19;19.90;66.20
41533;DHT22;27262;-35.248;149.138;2023-04-24T14:36:49;19.90;66.90
41533;DHT22;27262;-35.248;149.138;2023-04-24T14:39:19;19.90;66.20
41533;DHT22;27262;-35.248;149.138;2023-04-24T14:41:50;19.90;66.10
41533;DHT22;27262;-35.248;149.138;2023-04-24T14:44:20;19.90;66.10
41533;DHT22;27262;-35.248;149.138;2023-04-24T14:46:51;19.90;66.10
41533;DHT22;27262;-35.248;149.138;2023-04-24T14:49:21;19.90;66.00
41533;DHT22;27262;-35.248;149.138;2023-04-24T14:51:51;19.80;65.90
41533;DHT22;27262;-35.248;149.138;2023-04-24T14:54:22;19.90;66.00
41533;DHT22;27262;-35.248;149.138;2023-04-24T14:56:53;19.80;65.90
41533;DHT22;27262;-35.248;149.138;2023-04-24T14:59:24;19.80;65.90
41533;DHT22;27262;-35.248;149.138;2023-04-24T15:01:54;19.80;65.90
41533;DHT22;27262;-35.248;149.138;2023-04-24T15:04:43;19.80;65.90
41533;DHT22;27262;-35.248;149.138;2023-04-24T15:07:13;19.80;65.90
41533;DHT22;27262;-35.248;149.138;2023-04-24T15:09:43;19.80;65.90
41533;DHT22;27262;-35.248;149.138;2023-04-24T15:12:16;19.80;65.90
41533;DHT22;27262;-35.248;149.138;2023-04-24T15:14:47;19.80;65.90
41533;DHT22;27262;-35.248;149.138;2023-04-24T15:17:17;19.70;65.80
41533;DHT22;27262;-35.248;149.138;2023-04-24T15:19:47;19.70;65.80
41533;DHT22;27262;-35.248;149.138;2023-04-24T15:22:17;19.70;65.90
41533;DHT22;27262;-35.248;149.138;2023-04-24T15:24:48;19.70;65.80
41533;DHT22;27262;-35.248;149.138;2023-04-24T15:27:18;19.70;65.80
41533;DHT22;27262;-35.248;149.138;2023-04-24T15:29:48;19.70;65.80
41533;DHT22;27262;-35.248;149.138;2023-04-24T15:32:19;19.70;65.80
41533;DHT22;27262;-35.248;149.138;2023-04-24T15:34:49;19.70;65.80
41533;DHT22;27262;-35.248;149.138;2023-04-24T15:37:35;19.70;65.80